createdAt,value
2017-05-10T00:01:06.678Z,0
2017-05-10T00:02:17.735Z,0
2017-05-10T00:03:28.741Z,0
2017-05-10T00:04:39.754Z,0
2017-05-10T00:05:50.966Z,0
2017-05-10T00:07:01.973Z,0
2017-05-10T00:08:12.984Z,0
2017-05-10T00:09:23.998Z,0
2017-05-10T00:10:35.205Z,0
2017-05-10T00:11:46.406Z,0
2017-05-10T00:12:57.471Z,0
2017-05-10T00:14:08.464Z,0
2017-05-10T00:15:19.461Z,0
2017-05-10T00:16:30.674Z,0
2017-05-10T00:17:41.874Z,0
2017-05-10T00:18:52.886Z,0
2017-05-10T00:20:04.096Z,0
2017-05-10T00:21:15.112Z,0
2017-05-10T00:22:26.164Z,0
2017-05-10T00:23:37.228Z,0
2017-05-10T00:24:48.233Z,0
2017-05-10T00:25:59.229Z,0
2017-05-10T00:27:10.218Z,0
2017-05-10T00:28:21.214Z,0
2017-05-10T00:29:32.220Z,0
2017-05-10T00:30:43.463Z,0
2017-05-10T00:31:54.473Z,0
2017-05-10T00:33:05.485Z,0
2017-05-10T00:34:16.746Z,0
2017-05-10T00:35:27.755Z,0
2017-05-10T00:36:38.763Z,0
2017-05-10T00:37:49.770Z,0
2017-05-10T00:39:00.790Z,0
2017-05-10T00:40:11.791Z,0
2017-05-10T00:41:22.821Z,0
2017-05-10T00:42:33.817Z,0
2017-05-10T00:43:44.820Z,0
2017-05-10T00:44:55.871Z,0
2017-05-10T00:46:06.880Z,0
2017-05-10T00:47:17.880Z,0
2017-05-10T00:48:28.881Z,0
2017-05-10T00:49:40.080Z,0
2017-05-10T00:50:51.083Z,0
2017-05-10T00:52:02.089Z,0
2017-05-10T00:53:13.103Z,0
2017-05-10T00:54:24.108Z,0
2017-05-10T00:55:35.115Z,0
2017-05-10T00:56:46.117Z,0
2017-05-10T00:57:57.328Z,0
2017-05-10T00:59:08.381Z,0
2017-05-10T01:00:19.431Z,0
2017-05-10T01:01:30.631Z,0
2017-05-10T01:02:41.630Z,0
2017-05-10T01:03:52.642Z,0
2017-05-10T01:05:03.657Z,0
2017-05-10T01:06:14.655Z,0
2017-05-10T01:07:25.654Z,0
2017-05-10T01:08:36.658Z,0
2017-05-10T01:09:47.662Z,0
2017-05-10T01:10:58.725Z,0
2017-05-10T01:12:09.930Z,0
2017-05-10T01:13:20.936Z,0
2017-05-10T01:14:32.134Z,0
2017-05-10T01:15:43.140Z,0
2017-05-10T01:16:54.145Z,0
2017-05-10T01:18:05.152Z,0
2017-05-10T01:19:16.163Z,0
2017-05-10T01:20:27.175Z,0
2017-05-10T01:21:38.229Z,0
2017-05-10T01:22:49.231Z,0
2017-05-10T01:24:00.455Z,0
2017-05-10T01:25:11.656Z,0
2017-05-10T01:26:22.668Z,0
2017-05-10T01:27:33.672Z,0
2017-05-10T01:28:44.674Z,0
2017-05-10T01:29:55.672Z,0
2017-05-10T01:31:06.882Z,0
2017-05-10T01:32:17.927Z,0
2017-05-10T01:33:28.952Z,0
2017-05-10T01:34:40.153Z,0
2017-05-10T01:35:51.155Z,0
2017-05-10T01:37:02.181Z,0
2017-05-10T01:38:13.398Z,0
2017-05-10T01:39:24.398Z,0
2017-05-10T01:40:35.403Z,0
2017-05-10T01:41:46.404Z,0
2017-05-10T01:42:57.506Z,0
2017-05-10T01:44:08.524Z,0
2017-05-10T01:45:19.729Z,0
2017-05-10T01:46:30.735Z,0
2017-05-10T01:47:41.954Z,0
2017-05-10T01:48:53.016Z,0
2017-05-10T01:50:04.222Z,0
2017-05-10T01:51:15.221Z,0
2017-05-10T01:52:26.222Z,0
2017-05-10T01:53:37.224Z,0
2017-05-10T01:54:48.220Z,0
2017-05-10T01:55:59.228Z,0
2017-05-10T01:57:10.241Z,0
2017-05-10T01:58:21.245Z,0
2017-05-10T01:59:32.478Z,0
2017-05-10T02:00:43.688Z,0
2017-05-10T02:01:54.684Z,0
2017-05-10T02:03:05.693Z,0
2017-05-10T02:04:16.707Z,0
2017-05-10T02:05:27.702Z,0
2017-05-10T02:06:38.903Z,0
2017-05-10T02:07:49.908Z,0
2017-05-10T02:09:01.120Z,0
2017-05-10T02:10:12.373Z,0
2017-05-10T02:11:23.571Z,0
2017-05-10T02:12:34.779Z,0
2017-05-10T02:13:45.779Z,0
2017-05-10T02:14:56.994Z,0
2017-05-10T02:16:08.009Z,0
2017-05-10T02:17:19.009Z,0
2017-05-10T02:18:30.019Z,0
2017-05-10T02:19:41.022Z,0
2017-05-10T02:20:52.089Z,0
2017-05-10T02:22:03.291Z,0
2017-05-10T02:23:14.290Z,0
2017-05-10T02:24:25.293Z,0
2017-05-10T02:25:36.285Z,0
2017-05-10T02:26:47.288Z,0
2017-05-10T02:27:58.292Z,0
2017-05-10T02:29:09.297Z,0
2017-05-10T02:30:20.304Z,0
2017-05-10T02:31:31.353Z,0
2017-05-10T02:32:42.360Z,0
2017-05-10T02:33:53.354Z,0
2017-05-10T02:35:04.345Z,0
2017-05-10T02:36:15.349Z,0
2017-05-10T02:37:26.555Z,0
2017-05-10T02:38:37.758Z,0
2017-05-10T02:39:48.770Z,0
2017-05-10T02:40:59.778Z,0
2017-05-10T02:42:10.838Z,0
2017-05-10T02:43:21.846Z,0
2017-05-10T02:44:32.861Z,0
2017-05-10T02:45:44.056Z,0
2017-05-10T02:46:55.257Z,0
2017-05-10T02:48:06.673Z,0
2017-05-10T02:49:17.673Z,0
2017-05-10T02:50:28.688Z,0
2017-05-10T02:51:39.695Z,0
2017-05-10T02:52:50.754Z,0
2017-05-10T02:54:01.967Z,0
2017-05-10T02:55:12.981Z,0
2017-05-10T02:56:23.982Z,0
2017-05-10T02:57:34.980Z,0
2017-05-10T02:58:46.184Z,0
2017-05-10T02:59:57.386Z,0
2017-05-10T03:01:08.384Z,0
2017-05-10T03:02:19.376Z,0
2017-05-10T03:03:30.387Z,0
2017-05-10T03:04:41.421Z,0
2017-05-10T03:05:52.632Z,0
2017-05-10T03:07:03.637Z,4
2017-05-10T03:08:14.638Z,4
2017-05-10T03:09:25.731Z,0
2017-05-10T03:10:36.747Z,4
2017-05-10T03:11:47.761Z,4
2017-05-10T03:12:59.154Z,4
2017-05-10T03:14:10.154Z,4
2017-05-10T03:15:21.154Z,8
2017-05-10T03:16:32.153Z,8
2017-05-10T03:17:43.178Z,8
2017-05-10T03:18:54.392Z,8
2017-05-10T03:20:05.439Z,12
2017-05-10T03:21:16.847Z,12
2017-05-10T03:22:27.851Z,16
2017-05-10T03:23:39.045Z,16
2017-05-10T03:24:50.044Z,24
2017-05-10T03:26:01.459Z,28
2017-05-10T03:27:12.471Z,28
2017-05-10T03:28:23.478Z,36
2017-05-10T03:29:34.678Z,36
2017-05-10T03:30:45.740Z,44
2017-05-10T03:31:56.946Z,48
2017-05-10T03:33:07.982Z,56
2017-05-10T03:34:18.991Z,64
2017-05-10T03:35:29.988Z,72
2017-05-10T03:36:41.176Z,80
2017-05-10T03:37:52.210Z,88
2017-05-10T03:39:03.229Z,96
2017-05-10T03:40:14.228Z,108
2017-05-10T03:41:25.265Z,120
2017-05-10T03:42:36.460Z,132
2017-05-10T03:43:47.474Z,148
2017-05-10T03:44:58.709Z,164
2017-05-10T03:46:09.725Z,176
2017-05-10T03:47:20.730Z,192
2017-05-10T03:48:31.738Z,208
2017-05-10T03:49:42.954Z,228
2017-05-10T03:50:54.192Z,248
2017-05-10T03:52:05.247Z,264
2017-05-10T03:53:16.449Z,288
2017-05-10T03:54:27.703Z,308
2017-05-10T03:55:38.732Z,328
2017-05-10T03:56:49.751Z,352
2017-05-10T03:58:00.800Z,376
2017-05-10T03:59:11.808Z,400
2017-05-10T04:00:22.807Z,424
2017-05-10T04:01:34.010Z,456
2017-05-10T04:02:45.010Z,480
2017-05-10T04:03:56.216Z,508
2017-05-10T04:05:07.434Z,536
2017-05-10T04:06:18.434Z,568
2017-05-10T04:07:29.428Z,600
2017-05-10T04:08:40.420Z,640
2017-05-10T04:09:51.438Z,684
2017-05-10T04:11:02.432Z,732
2017-05-10T04:12:13.443Z,780
2017-05-10T04:13:24.650Z,832
2017-05-10T04:14:35.706Z,896
2017-05-10T04:15:46.700Z,968
2017-05-10T04:16:57.700Z,1008
2017-05-10T04:18:08.711Z,1040
2017-05-10T04:19:19.759Z,1100
2017-05-10T04:20:30.770Z,1176
2017-05-10T04:21:41.790Z,1284
2017-05-10T04:22:52.802Z,1428
2017-05-10T04:24:03.817Z,1636
2017-05-10T04:25:15.080Z,1816
2017-05-10T04:26:26.094Z,1896
2017-05-10T04:27:37.093Z,2028
2017-05-10T04:28:48.291Z,2160
2017-05-10T04:29:59.492Z,2120
2017-05-10T04:31:10.881Z,2184
2017-05-10T04:32:21.883Z,2560
2017-05-10T04:33:32.885Z,2896
2017-05-10T04:34:43.887Z,3148
2017-05-10T04:35:54.925Z,3436
2017-05-10T04:37:05.928Z,3284
2017-05-10T04:38:16.921Z,2968
2017-05-10T04:39:27.921Z,2980
2017-05-10T04:40:38.927Z,2976
2017-05-10T04:41:49.922Z,3148
2017-05-10T04:43:00.961Z,3204
2017-05-10T04:44:12.178Z,3236
2017-05-10T04:45:23.167Z,3132
2017-05-10T04:46:34.445Z,3868
2017-05-10T04:47:45.453Z,4652
2017-05-10T04:48:56.668Z,5608
2017-05-10T04:50:07.666Z,5876
2017-05-10T04:51:18.676Z,5796
2017-05-10T04:52:29.673Z,5736
2017-05-10T04:53:40.677Z,6028
2017-05-10T04:54:51.678Z,5416
2017-05-10T04:56:02.689Z,4936
2017-05-10T04:57:13.950Z,4392
2017-05-10T04:58:24.966Z,4888
2017-05-10T04:59:35.972Z,5128
2017-05-10T05:00:46.989Z,5064
2017-05-10T05:01:57.981Z,5052
2017-05-10T05:03:09.181Z,5204
2017-05-10T05:04:20.186Z,5152
2017-05-10T05:05:31.197Z,6300
2017-05-10T05:06:42.193Z,6972
2017-05-10T05:07:53.242Z,8344
2017-05-10T05:09:04.454Z,12524
2017-05-10T05:10:15.471Z,10516
2017-05-10T05:11:26.485Z,11788
2017-05-10T05:12:37.538Z,13632
2017-05-10T05:13:48.547Z,14144
2017-05-10T05:14:59.555Z,14976
2017-05-10T05:16:10.528Z,15840
2017-05-10T05:17:21.528Z,12712
2017-05-10T05:18:32.540Z,9692
2017-05-10T05:19:43.544Z,10068
2017-05-10T05:20:54.552Z,8320
2017-05-10T05:22:05.554Z,6956
2017-05-10T05:23:16.569Z,7260
2017-05-10T05:24:27.633Z,7152
2017-05-10T05:25:38.632Z,6868
2017-05-10T05:26:49.625Z,6552
2017-05-10T05:28:00.635Z,6104
2017-05-10T05:29:11.640Z,6992
2017-05-10T05:30:22.843Z,7496
2017-05-10T05:31:34.041Z,7932
2017-05-10T05:32:45.244Z,8544
2017-05-10T05:33:56.261Z,10264
2017-05-10T05:35:07.317Z,10744
2017-05-10T05:36:18.336Z,9608
2017-05-10T05:37:29.542Z,11104
2017-05-10T05:38:40.555Z,10020
2017-05-10T05:39:51.954Z,9264
2017-05-10T05:41:02.959Z,8840
2017-05-10T05:42:14.018Z,8988
2017-05-10T05:43:25.029Z,10104
2017-05-10T05:44:36.034Z,9952
2017-05-10T05:45:47.241Z,9604
2017-05-10T05:46:58.257Z,9400
2017-05-10T05:48:09.465Z,10276
2017-05-10T05:49:20.456Z,13016
2017-05-10T05:50:31.452Z,12968
2017-05-10T05:51:42.440Z,14116
2017-05-10T05:52:53.444Z,15328
2017-05-10T05:54:04.449Z,15904
2017-05-10T05:55:15.709Z,12716
2017-05-10T05:56:26.711Z,11344
2017-05-10T05:57:37.916Z,13072
2017-05-10T05:58:48.923Z,30176
2017-05-10T06:00:00.141Z,28768
2017-05-10T06:01:11.360Z,30784
2017-05-10T06:02:22.360Z,29408
2017-05-10T06:03:33.375Z,26496
2017-05-10T06:04:44.589Z,36800
2017-05-10T06:05:55.644Z,35712
2017-05-10T06:07:06.660Z,36608
2017-05-10T06:08:17.861Z,35808
2017-05-10T06:09:29.073Z,36736
2017-05-10T06:10:40.082Z,37152
2017-05-10T06:11:51.089Z,37984
2017-05-10T06:13:02.104Z,36256
2017-05-10T06:14:13.113Z,34528
2017-05-10T06:15:24.161Z,32000
2017-05-10T06:16:35.174Z,36608
2017-05-10T06:17:46.200Z,40480
2017-05-10T06:18:57.235Z,42624
2017-05-10T06:20:08.243Z,42784
2017-05-10T06:21:19.666Z,41920
2017-05-10T06:22:30.880Z,37504
2017-05-10T06:23:41.936Z,35264
2017-05-10T06:24:52.943Z,33376
2017-05-10T06:26:03.951Z,36288
2017-05-10T06:27:15.151Z,37856
2017-05-10T06:28:26.161Z,42624
2017-05-10T06:29:37.379Z,43232
2017-05-10T06:30:48.410Z,41728
2017-05-10T06:31:59.624Z,40384
2017-05-10T06:33:10.689Z,43584
2017-05-10T06:34:21.917Z,46944
2017-05-10T06:35:32.937Z,39808
2017-05-10T06:36:44.153Z,47296
2017-05-10T06:37:55.175Z,48736
2017-05-10T06:39:06.406Z,49248
2017-05-10T06:40:17.422Z,50112
2017-05-10T06:41:28.431Z,50208
2017-05-10T06:42:39.446Z,49920
2017-05-10T06:43:50.716Z,51648
2017-05-10T06:45:01.738Z,50656
2017-05-10T06:46:12.757Z,53312
2017-05-10T06:47:23.790Z,52192
2017-05-10T06:48:35.028Z,52256
2017-05-10T06:49:46.029Z,55104
2017-05-10T06:50:57.053Z,55328
2017-05-10T06:52:08.265Z,54912
2017-05-10T06:53:19.274Z,52704
2017-05-10T06:54:30.346Z,47424
2017-05-10T06:55:41.365Z,50272
2017-05-10T06:56:52.602Z,52288
2017-05-10T06:58:03.820Z,51360
2017-05-10T06:59:14.844Z,52768
2017-05-10T07:00:25.858Z,52960
2017-05-10T07:01:36.874Z,56000
2017-05-10T07:02:47.901Z,57056
2017-05-10T07:03:59.132Z,58784
2017-05-10T07:05:10.203Z,58752
2017-05-10T07:06:21.239Z,57760
2017-05-10T07:07:32.466Z,51712
2017-05-10T07:08:43.492Z,53632
2017-05-10T07:09:54.526Z,55808
2017-05-10T07:11:05.551Z,54720
2017-05-10T07:12:16.575Z,54688
2017-05-10T07:13:27.605Z,57088
2017-05-10T07:14:38.622Z,56608
2017-05-10T07:15:49.654Z,50368
2017-05-10T07:17:00.686Z,52992
2017-05-10T07:18:11.705Z,60928
2017-05-10T07:19:23.129Z,61568
2017-05-10T07:20:34.196Z,64928
2017-05-10T07:21:45.409Z,63200
2017-05-10T07:22:56.437Z,64704
2017-05-10T07:24:07.668Z,65088
2017-05-10T07:25:18.889Z,66336
2017-05-10T07:26:30.156Z,63936
2017-05-10T07:27:41.172Z,62624
2017-05-10T07:28:52.190Z,59104
2017-05-10T07:30:03.215Z,62112
2017-05-10T07:31:14.490Z,65664
2017-05-10T07:32:25.501Z,69792
2017-05-10T07:33:36.522Z,73120
2017-05-10T07:34:47.590Z,71264
2017-05-10T07:35:58.618Z,68672
2017-05-10T07:37:09.904Z,65056
2017-05-10T07:38:20.933Z,63168
2017-05-10T07:39:31.958Z,63232
2017-05-10T07:40:42.982Z,62528
2017-05-10T07:41:53.984Z,54208
2017-05-10T07:43:05.002Z,61504
2017-05-10T07:44:16.025Z,62720
2017-05-10T07:45:27.036Z,64544
2017-05-10T07:46:38.055Z,65984
2017-05-10T07:47:49.147Z,66144
2017-05-10T07:49:00.181Z,64896
2017-05-10T07:50:11.196Z,65152
2017-05-10T07:51:22.830Z,64576
2017-05-10T07:52:33.858Z,61024
2017-05-10T07:53:45.057Z,58080
2017-05-10T07:54:56.283Z,53568
2017-05-10T07:56:07.508Z,56096
2017-05-10T07:57:18.527Z,64448
2017-05-10T07:58:29.810Z,65952
2017-05-10T07:59:40.830Z,61856
2017-05-10T08:00:51.853Z,63232
2017-05-10T08:02:02.894Z,64224
2017-05-10T08:03:14.138Z,66304
2017-05-10T08:04:25.163Z,66784
2017-05-10T08:05:36.184Z,67488
2017-05-10T08:06:47.208Z,67392
2017-05-10T08:07:58.236Z,68320
2017-05-10T08:09:09.311Z,70496
2017-05-10T08:10:20.329Z,71808
2017-05-10T08:11:31.358Z,73440
2017-05-10T08:12:42.780Z,68448
2017-05-10T08:13:53.810Z,66528
2017-05-10T08:15:04.832Z,66624
2017-05-10T08:16:15.847Z,70048
2017-05-10T08:17:26.883Z,59200
2017-05-10T08:18:38.106Z,67680
2017-05-10T08:19:49.132Z,72768
2017-05-10T08:21:00.160Z,71872
2017-05-10T08:22:11.388Z,71712
2017-05-10T08:23:22.422Z,70656
2017-05-10T08:24:33.454Z,70144
2017-05-10T08:25:44.688Z,68768
2017-05-10T08:26:55.715Z,72160
2017-05-10T08:28:06.941Z,75072
2017-05-10T08:29:18.173Z,73024
2017-05-10T08:30:29.243Z,55264
2017-05-10T08:31:40.266Z,68288
2017-05-10T08:32:51.287Z,23424
2017-05-10T08:34:02.322Z,20928
2017-05-10T08:35:13.730Z,20608
2017-05-10T08:36:25.017Z,20608
2017-05-10T08:37:36.059Z,22496
2017-05-10T08:38:47.082Z,23872
2017-05-10T08:39:58.520Z,23488
2017-05-10T08:41:09.793Z,26048
2017-05-10T08:42:20.821Z,24384
2017-05-10T08:43:31.890Z,29280
2017-05-10T08:44:42.916Z,56000
2017-05-10T08:45:54.136Z,64736
2017-05-10T08:47:05.161Z,62656
2017-05-10T08:48:16.180Z,66784
2017-05-10T08:49:27.215Z,68160
2017-05-10T08:50:38.248Z,64576
2017-05-10T08:51:49.518Z,65376
2017-05-10T08:53:00.743Z,65600
2017-05-10T08:54:11.770Z,63296
2017-05-10T08:55:22.789Z,63776
2017-05-10T08:56:33.816Z,61760
2017-05-10T08:57:45.044Z,64416
2017-05-10T08:58:56.058Z,58656
2017-05-10T09:00:07.082Z,65568
2017-05-10T09:01:18.113Z,68064
2017-05-10T09:02:29.190Z,66656
2017-05-10T09:03:40.423Z,22528
2017-05-10T09:04:51.453Z,55872
2017-05-10T09:06:02.481Z,23072
2017-05-10T09:07:13.507Z,19168
2017-05-10T09:08:24.535Z,25920
2017-05-10T09:09:35.561Z,17696
2017-05-10T09:10:46.582Z,19552
2017-05-10T09:11:57.599Z,21664
2017-05-10T09:13:08.871Z,21824
2017-05-10T09:14:20.099Z,22240
2017-05-10T09:15:31.126Z,56192
2017-05-10T09:16:42.159Z,22400
2017-05-10T09:17:53.172Z,63744
2017-05-10T09:19:04.240Z,39808
2017-05-10T09:20:15.259Z,24288
2017-05-10T09:21:26.284Z,58976
2017-05-10T09:22:37.303Z,20768
2017-05-10T09:23:48.525Z,19904
2017-05-10T09:24:59.552Z,38560
2017-05-10T09:26:10.769Z,16832
2017-05-10T09:27:21.806Z,15808
2017-05-10T09:28:32.838Z,15444
2017-05-10T09:29:43.857Z,16256
2017-05-10T09:30:54.880Z,40864
2017-05-10T09:32:06.102Z,48352
2017-05-10T09:33:17.116Z,29504
2017-05-10T09:34:28.191Z,60128
2017-05-10T09:35:39.220Z,40352
2017-05-10T09:36:50.431Z,37792
2017-05-10T09:38:01.438Z,36864
2017-05-10T09:39:12.657Z,55648
2017-05-10T09:40:23.875Z,54688
2017-05-10T09:41:34.900Z,53920
2017-05-10T09:42:45.934Z,56736
2017-05-10T09:43:56.951Z,17760
2017-05-10T09:45:08.011Z,16128
2017-05-10T09:46:19.027Z,15176
2017-05-10T09:47:30.057Z,14464
2017-05-10T09:48:41.072Z,14332
2017-05-10T09:49:52.302Z,14088
2017-05-10T09:51:03.362Z,14224
2017-05-10T09:52:14.574Z,14300
2017-05-10T09:53:25.583Z,13880
2017-05-10T09:54:36.599Z,13344
2017-05-10T09:55:47.834Z,13860
2017-05-10T09:56:58.850Z,14916
2017-05-10T09:58:09.881Z,17504
2017-05-10T09:59:20.902Z,14916
2017-05-10T10:00:31.967Z,16640
2017-05-10T10:01:43.394Z,59072
2017-05-10T10:02:54.415Z,41696
2017-05-10T10:04:05.432Z,17824
2017-05-10T10:05:16.455Z,17984
2017-05-10T10:06:27.675Z,32288
2017-05-10T10:07:38.688Z,32800
2017-05-10T10:08:49.705Z,57472
2017-05-10T10:10:00.714Z,38336
2017-05-10T10:11:11.989Z,49952
2017-05-10T10:12:23.013Z,37152
2017-05-10T10:13:34.041Z,22752
2017-05-10T10:14:45.094Z,34208
2017-05-10T10:15:56.319Z,23936
2017-05-10T10:17:07.343Z,20096
2017-05-10T10:18:18.380Z,33344
2017-05-10T10:19:29.385Z,25408
2017-05-10T10:20:40.604Z,16896
2017-05-10T10:21:51.884Z,15228
2017-05-10T10:23:03.108Z,14596
2017-05-10T10:24:14.134Z,14180
2017-05-10T10:25:25.153Z,13360
2017-05-10T10:26:36.159Z,13196
2017-05-10T10:27:47.179Z,13264
2017-05-10T10:28:58.182Z,13500
2017-05-10T10:30:09.190Z,14304
2017-05-10T10:31:20.609Z,30624
2017-05-10T10:32:31.625Z,38880
2017-05-10T10:33:42.639Z,44096
2017-05-10T10:34:53.659Z,17376
2017-05-10T10:36:04.671Z,16032
2017-05-10T10:37:15.698Z,16384
2017-05-10T10:38:26.770Z,16960
2017-05-10T10:39:37.796Z,15872
2017-05-10T10:40:48.811Z,15104
2017-05-10T10:41:59.846Z,14744
2017-05-10T10:43:10.860Z,15648
2017-05-10T10:44:22.076Z,16896
2017-05-10T10:45:33.091Z,24128
2017-05-10T10:46:44.100Z,47168
2017-05-10T10:47:55.119Z,25376
2017-05-10T10:49:06.189Z,16704
2017-05-10T10:50:17.205Z,33344
2017-05-10T10:51:28.225Z,23040
2017-05-10T10:52:39.248Z,24192
2017-05-10T10:53:50.668Z,43040
2017-05-10T10:55:01.697Z,37856
2017-05-10T10:56:12.723Z,40256
2017-05-10T10:57:23.748Z,41056
2017-05-10T10:58:34.772Z,40928
2017-05-10T10:59:45.852Z,42368
2017-05-10T11:00:56.873Z,42624
2017-05-10T11:02:07.892Z,31840
2017-05-10T11:03:18.906Z,28128
2017-05-10T11:04:29.927Z,38336
2017-05-10T11:05:40.952Z,37920
2017-05-10T11:06:51.974Z,37728
2017-05-10T11:08:02.991Z,37376
2017-05-10T11:09:14.003Z,12988
2017-05-10T11:10:25.029Z,13652
2017-05-10T11:11:36.049Z,15188
2017-05-10T11:12:47.275Z,15392
2017-05-10T11:13:58.495Z,13612
2017-05-10T11:15:09.566Z,12312
2017-05-10T11:16:20.581Z,11664
2017-05-10T11:17:31.604Z,11592
2017-05-10T11:18:42.627Z,11984
2017-05-10T11:19:53.633Z,13708
2017-05-10T11:21:04.919Z,35904
2017-05-10T11:22:15.939Z,29472
2017-05-10T11:23:26.957Z,18112
2017-05-10T11:24:38.175Z,32832
2017-05-10T11:25:49.797Z,17824
2017-05-10T11:27:00.875Z,25408
2017-05-10T11:28:11.892Z,14464
2017-05-10T11:29:22.903Z,13956
2017-05-10T11:30:33.914Z,13140
2017-05-10T11:31:45.146Z,12428
2017-05-10T11:32:56.178Z,12180
2017-05-10T11:34:07.398Z,12340
2017-05-10T11:35:18.423Z,12704
2017-05-10T11:36:29.436Z,13116
2017-05-10T11:37:40.656Z,13800
2017-05-10T11:38:51.717Z,14312
2017-05-10T11:40:02.739Z,15008
2017-05-10T11:41:13.955Z,18528
2017-05-10T11:42:24.966Z,17984
2017-05-10T11:43:36.030Z,20032
2017-05-10T11:44:47.069Z,27648
2017-05-10T11:45:58.094Z,26816
2017-05-10T11:47:09.106Z,22720
2017-05-10T11:48:20.179Z,15968
2017-05-10T11:49:31.200Z,21728
2017-05-10T11:50:42.434Z,19744
2017-05-10T11:51:53.470Z,19744
2017-05-10T11:53:04.494Z,11076
2017-05-10T11:54:15.526Z,9856
2017-05-10T11:55:26.577Z,9720
2017-05-10T11:56:37.592Z,16320
2017-05-10T11:57:48.618Z,18816
2017-05-10T11:58:59.676Z,18464
2017-05-10T12:00:10.715Z,18208
2017-05-10T12:01:21.734Z,17600
2017-05-10T12:02:32.759Z,17344
2017-05-10T12:03:43.791Z,16960
2017-05-10T12:04:54.820Z,9800
2017-05-10T12:06:05.833Z,9776
2017-05-10T12:07:16.863Z,10060
2017-05-10T12:08:27.890Z,10520
2017-05-10T12:09:38.958Z,10140
2017-05-10T12:10:49.972Z,9824
2017-05-10T12:12:01.181Z,9616
2017-05-10T12:13:12.401Z,9688
2017-05-10T12:14:23.614Z,9576
2017-05-10T12:15:34.625Z,9368
2017-05-10T12:16:45.637Z,9352
2017-05-10T12:17:56.867Z,10080
2017-05-10T12:19:07.891Z,11052
2017-05-10T12:20:18.905Z,15040
2017-05-10T12:21:30.121Z,15648
2017-05-10T12:22:41.140Z,10836
2017-05-10T12:23:52.156Z,13792
2017-05-10T12:25:03.226Z,15296
2017-05-10T12:26:14.459Z,14944
2017-05-10T12:27:25.484Z,15136
2017-05-10T12:28:36.702Z,15040
2017-05-10T12:29:47.730Z,14592
2017-05-10T12:30:59.211Z,14560
2017-05-10T12:32:10.231Z,14368
2017-05-10T12:33:21.477Z,14048
2017-05-10T12:34:32.494Z,13376
2017-05-10T12:35:43.511Z,12992
2017-05-10T12:36:54.526Z,12992
2017-05-10T12:38:05.545Z,12864
2017-05-10T12:39:16.755Z,12032
2017-05-10T12:40:27.779Z,11420
2017-05-10T12:41:38.813Z,11128
2017-05-10T12:42:49.834Z,10876
2017-05-10T12:44:00.856Z,10604
2017-05-10T12:45:11.868Z,10168
2017-05-10T12:46:22.901Z,9748
2017-05-10T12:47:33.976Z,9452
2017-05-10T12:48:45.039Z,9196
2017-05-10T12:49:56.060Z,9012
2017-05-10T12:51:07.095Z,8912
2017-05-10T12:52:18.115Z,8596
2017-05-10T12:53:29.140Z,8432
2017-05-10T12:54:40.158Z,8320
2017-05-10T12:55:51.185Z,8360
2017-05-10T12:57:02.209Z,8344
2017-05-10T12:58:13.302Z,8312
2017-05-10T12:59:24.338Z,8276
2017-05-10T13:00:35.361Z,8228
2017-05-10T13:01:46.573Z,8468
2017-05-10T13:02:57.586Z,8604
2017-05-10T13:04:08.593Z,8676
2017-05-10T13:05:19.602Z,8716
2017-05-10T13:06:30.622Z,8724
2017-05-10T13:07:41.679Z,7256
2017-05-10T13:08:52.748Z,5660
2017-05-10T13:10:03.763Z,8660
2017-05-10T13:11:14.784Z,7212
2017-05-10T13:12:25.804Z,6948
2017-05-10T13:13:36.832Z,6216
2017-05-10T13:14:47.854Z,8456
2017-05-10T13:15:58.862Z,8612
2017-05-10T13:17:09.886Z,8628
2017-05-10T13:18:20.894Z,8456
2017-05-10T13:19:32.164Z,7880
2017-05-10T13:20:43.197Z,8260
2017-05-10T13:21:54.216Z,8304
2017-05-10T13:23:05.432Z,8212
2017-05-10T13:24:16.843Z,8300
2017-05-10T13:25:27.875Z,8280
2017-05-10T13:26:38.882Z,8260
2017-05-10T13:27:49.909Z,8196
2017-05-10T13:29:00.918Z,8128
2017-05-10T13:30:11.927Z,8176
2017-05-10T13:31:22.943Z,8288
2017-05-10T13:32:33.957Z,7952
2017-05-10T13:33:44.982Z,8196
2017-05-10T13:34:56.189Z,8180
2017-05-10T13:36:07.198Z,8144
2017-05-10T13:37:18.206Z,8044
2017-05-10T13:38:29.424Z,7944
2017-05-10T13:39:40.450Z,7904
2017-05-10T13:40:51.668Z,7980
2017-05-10T13:42:02.678Z,7968
2017-05-10T13:43:13.696Z,7956
2017-05-10T13:44:24.714Z,7876
2017-05-10T13:45:35.727Z,7884
2017-05-10T13:46:46.782Z,7940
2017-05-10T13:47:57.795Z,7992
2017-05-10T13:49:08.808Z,8020
2017-05-10T13:50:19.822Z,7924
2017-05-10T13:51:30.839Z,7892
2017-05-10T13:52:41.840Z,7860
2017-05-10T13:53:52.849Z,7832
2017-05-10T13:55:03.870Z,7812
2017-05-10T13:56:14.882Z,7744
2017-05-10T13:57:25.944Z,7664
2017-05-10T13:58:36.963Z,7672
2017-05-10T13:59:47.981Z,7652
2017-05-10T14:00:59.183Z,7608
2017-05-10T14:02:10.195Z,7724
2017-05-10T14:03:21.407Z,7652
2017-05-10T14:04:32.420Z,7720
2017-05-10T14:05:43.438Z,8332
2017-05-10T14:06:54.442Z,9404
2017-05-10T14:08:05.507Z,10456
2017-05-10T14:09:16.526Z,10900
2017-05-10T14:10:27.553Z,10720
2017-05-10T14:11:38.590Z,10448
2017-05-10T14:12:49.604Z,10312
2017-05-10T14:14:00.615Z,9964
2017-05-10T14:15:11.638Z,9788
2017-05-10T14:16:22.867Z,10040
2017-05-10T14:17:34.277Z,9756
2017-05-10T14:18:45.346Z,9632
2017-05-10T14:19:56.359Z,10212
2017-05-10T14:21:07.376Z,9820
2017-05-10T14:22:18.384Z,9904
2017-05-10T14:23:29.401Z,10040
2017-05-10T14:24:40.421Z,9592
2017-05-10T14:25:51.426Z,9876
2017-05-10T14:27:02.434Z,9896
2017-05-10T14:28:13.476Z,9868
2017-05-10T14:29:24.534Z,10020
2017-05-10T14:30:35.545Z,8584
2017-05-10T14:31:46.551Z,7276
2017-05-10T14:32:57.566Z,6316
2017-05-10T14:34:08.578Z,5900
2017-05-10T14:35:19.845Z,5800
2017-05-10T14:36:30.855Z,5724
2017-05-10T14:37:41.862Z,5688
2017-05-10T14:38:53.071Z,5616
2017-05-10T14:40:04.078Z,5592
2017-05-10T14:41:15.108Z,5504
2017-05-10T14:42:26.147Z,5416
2017-05-10T14:43:37.153Z,5376
2017-05-10T14:44:48.375Z,5332
2017-05-10T14:45:59.390Z,5296
2017-05-10T14:47:10.460Z,5212
2017-05-10T14:48:21.466Z,5184
2017-05-10T14:49:32.476Z,5168
2017-05-10T14:50:43.486Z,5112
2017-05-10T14:51:54.571Z,5068
2017-05-10T14:53:05.578Z,5060
2017-05-10T14:54:16.795Z,5060
2017-05-10T14:55:27.820Z,5040
2017-05-10T14:56:38.823Z,4996
2017-05-10T14:57:49.845Z,4992
2017-05-10T14:59:01.058Z,4972
2017-05-10T15:00:12.268Z,4928
2017-05-10T15:01:23.280Z,4760
2017-05-10T15:02:34.344Z,4744
2017-05-10T15:03:45.557Z,4744
2017-05-10T15:04:56.577Z,4696
2017-05-10T15:06:07.585Z,4640
2017-05-10T15:07:18.597Z,4592
2017-05-10T15:08:29.613Z,4616
2017-05-10T15:09:40.637Z,4572
2017-05-10T15:10:51.648Z,4596
2017-05-10T15:12:02.860Z,4556
2017-05-10T15:13:13.919Z,4512
2017-05-10T15:14:25.125Z,4484
2017-05-10T15:15:36.338Z,4404
2017-05-10T15:16:47.349Z,4332
2017-05-10T15:17:58.571Z,4464
2017-05-10T15:19:09.583Z,4464
2017-05-10T15:20:20.599Z,4160
2017-05-10T15:21:31.598Z,4136
2017-05-10T15:22:42.608Z,4248
2017-05-10T15:23:53.660Z,4208
2017-05-10T15:25:04.683Z,4240
2017-05-10T15:26:15.901Z,4048
2017-05-10T15:27:27.121Z,4308
2017-05-10T15:28:38.133Z,4296
2017-05-10T15:29:49.141Z,4356
2017-05-10T15:31:00.163Z,4288
2017-05-10T15:32:11.183Z,4288
2017-05-10T15:33:22.186Z,4224
2017-05-10T15:34:33.245Z,4264
2017-05-10T15:35:44.254Z,4200
2017-05-10T15:36:55.483Z,4280
2017-05-10T15:38:06.491Z,4288
2017-05-10T15:39:17.496Z,4284
2017-05-10T15:40:28.720Z,4332
2017-05-10T15:41:39.740Z,4324
2017-05-10T15:42:50.767Z,4280
2017-05-10T15:44:01.772Z,4340
2017-05-10T15:45:12.786Z,4352
2017-05-10T15:46:24.190Z,4364
2017-05-10T15:47:35.203Z,4312
2017-05-10T15:48:46.219Z,4280
2017-05-10T15:49:57.232Z,4280
2017-05-10T15:51:08.240Z,4308
2017-05-10T15:52:19.255Z,4360
2017-05-10T15:53:30.458Z,4348
2017-05-10T15:54:41.704Z,4336